Global 1200 — C6DJ2 — position and weather

sailwx.info

Track history (hours):
 
Tides and Currents Weather Stations Pressure Air Temp Water Temp Dewpoint Dewpoint Depression Visibility Wind Speed Wind Dir Waves Ship Positions

Global 1200

Last reported at 2017-Oct-22 07:09 UTC. Time now 2017-Nov-19 15:51 UTC.
Position N 36°03' W 005°21'.
Warning: this ship's position is 28 days out of date.

Length 162 m; draft 6.8 m.

Type: Ship. MMSI: 311000689.

Date/timePositionNaut miles runAvg speedWind from/ knotsBaromVisibWave heightAir tempDewpointWater temp
2017-Oct-22 07:09N 36°03' W 005°21'0 0.1
2017-Oct-22 06:43N 36°03' W 005°21'0 1.1
2017-Oct-22 06:29N 36°03' W 005°20'3 0.2
2017-Oct-21 16:43N 36°04' W 005°17'312.3
2017-Oct-21 16:30N 36°02' W 005°19'612.1
2017-Oct-21 16:00N 35°59' W 005°25'153 9.6
2017-Oct-21 00:02N 36°24' W 008°32'8 9.6
2017-Oct-20 23:10N 36°27' W 008°42'4 9.3
2017-Oct-20 22:44N 36°28' W 008°47'3 8.9
2017-Oct-20 22:27N 36°28' W 008°50'4 8.9
2017-Oct-20 22:00N 36°29' W 008°55'5 9.5
2017-Oct-20 21:30N 36°31' W 009°01'11 9.6
2017-Oct-20 20:20N 36°34' W 009°14'102 9.8
2017-Oct-20 09:56N 38°10' W 009°57'710.7
2017-Oct-20 09:17N 38°17' W 009°59'310.4
2017-Oct-20 09:00N 38°19' W 009°60'510.2
2017-Oct-20 08:30N 38°24' W 010°01'510.1
2017-Oct-20 08:00N 38°29' W 010°03'510.0
2017-Oct-20 07:30N 38°34' W 010°04'510.1
2017-Oct-20 07:00N 38°39' W 010°06'5 9.8
2017-Oct-20 06:30N 38°44' W 010°07'5 9.5
2017-Oct-20 06:00N 38°48' W 010°06'510.2
2017-Oct-20 05:30N 38°54' W 010°07'5 9.9
2017-Oct-20 05:00N 38°59' W 010°06'5 9.8
2017-Oct-20 04:30N 39°03' W 010°06'510.3
2017-Oct-20 04:00N 39°09' W 010°06'510.5
2017-Oct-20 03:30N 39°14' W 010°07'510.1
2017-Oct-20 03:00N 39°19' W 010°07'510.0
2017-Oct-20 02:30N 39°24' W 010°06'480 9.7
2017-Oct-18 00:56N 46°59' W 006°38'1010.2
2017-Oct-17 23:57N 47°07' W 006°30'1710.4
2017-Oct-17 22:20N 47°21' W 006°16'3510.9
2017-Oct-17 19:09N 47°51' W 005°49'612.2
2017-Oct-17 18:37N 47°56' W 005°44'612.1
2017-Oct-17 18:08N 48°01' W 005°39'510.5
2017-Oct-17 17:41N 48°03' W 005°32'210.7
2017-Oct-17 17:28N 48°04' W 005°29'510.6
2017-Oct-17 17:00N 48°06' W 005°23'612.3
2017-Oct-17 16:29N 48°09' W 005°14'5 9.4
2017-Oct-17 15:55N 48°11' W 005°07'3 8.4
2017-Oct-17 15:30N 48°12' W 005°02'510.2
2017-Oct-17 15:00N 48°14' W 004°55'510.4
2017-Oct-17 14:30N 48°16' W 004°48'510.8
2017-Oct-17 14:00N 48°18' W 004°40'5 9.1
2017-Oct-17 13:30N 48°21' W 004°34'4 8.4
2017-Oct-17 13:00N 48°22' W 004°28'1 2.0
2017-Oct-17 12:30N 48°23' W 004°27'0 0.0
2017-Oct-17 12:00N 48°23' W 004°27'0 0.0
2017-Oct-17 11:31N 48°23' W 004°27'0 0.0
2017-Oct-17 11:00N 48°23' W 004°27'0 0.0
2017-Oct-17 10:30N 48°23' W 004°27'0 0.0
2017-Oct-17 10:00N 48°23' W 004°27'0 0.0
2017-Oct-17 09:30N 48°23' W 004°27'0 0.0
2017-Oct-17 09:00N 48°23' W 004°27'0 0.0
2017-Oct-17 08:30N 48°23' W 004°27'0 0.0
2017-Oct-17 08:00N 48°23' W 004°27'0 0.0
2017-Oct-17 07:30N 48°23' W 004°27'0 0.0
2017-Oct-17 07:00N 48°23' W 004°27'0 0.0
2017-Oct-17 06:30N 48°23' W 004°27'0 0.0
2017-Oct-17 06:00N 48°23' W 004°27'0 0.0
2017-Oct-17 05:30N 48°23' W 004°27'0 0.0
2017-Oct-17 05:00N 48°23' W 004°27'0 0.0
2017-Oct-17 04:30N 48°23' W 004°27'0 0.0
2017-Oct-17 04:00N 48°23' W 004°27'0 0.0
2017-Oct-17 03:30N 48°23' W 004°27'0 0.0
2017-Oct-17 03:00N 48°23' W 004°27'0 0.0
2017-Oct-17 02:30N 48°23' W 004°27'0 0.0
2017-Oct-17 02:00N 48°23' W 004°27'0 0.0
2017-Oct-17 01:30N 48°23' W 004°27'0 0.0
2017-Oct-17 01:00N 48°23' W 004°27'0 0.0
2017-Oct-17 00:30N 48°23' W 004°27'0 0.0
2017-Oct-17 00:00N 48°23' W 004°27'0 0.0
2017-Oct-16 23:30N 48°23' W 004°27'0 0.0
2017-Oct-16 23:00N 48°23' W 004°27'0 0.0
2017-Oct-16 22:30N 48°23' W 004°27'0 0.0
2017-Oct-16 22:00N 48°23' W 004°27'0 0.0
2017-Oct-16 21:30N 48°23' W 004°27'0 0.0
2017-Oct-16 21:00N 48°23' W 004°27'0 0.0
2017-Oct-16 20:30N 48°23' W 004°27'0 0.0
2017-Oct-16 20:00N 48°23' W 004°27'0 0.0
2017-Oct-16 19:30N 48°23' W 004°27'0 0.0
2017-Oct-16 19:00N 48°23' W 004°27'0 0.0
2017-Oct-16 18:30N 48°23' W 004°27'0 0.0
2017-Oct-16 18:00N 48°23' W 004°27'0 0.0
2017-Oct-16 17:30N 48°23' W 004°27'0 0.0
2017-Oct-16 17:00N 48°23' W 004°27'0 0.0
2017-Oct-16 16:30N 48°23' W 004°27'0 0.0
2017-Oct-16 16:00N 48°23' W 004°27'0 0.0
2017-Oct-16 15:30N 48°23' W 004°27'0 0.0
2017-Oct-16 15:00N 48°23' W 004°27'0 0.0
2017-Oct-16 14:00N 48°23' W 004°27'0 0.0
2017-Oct-16 13:30N 48°23' W 004°27'0 0.0
2017-Oct-16 13:00N 48°23' W 004°27'0 0.0
2017-Oct-16 12:30N 48°23' W 004°27'0 0.0
2017-Oct-16 12:00N 48°23' W 004°27'0 0.0
2017-Oct-16 11:30N 48°23' W 004°27'0 0.0
2017-Oct-16 11:00N 48°23' W 004°27'0 0.0
2017-Oct-16 10:30N 48°23' W 004°27'0 0.0
2017-Oct-16 10:00N 48°23' W 004°27'0 0.0
2017-Oct-16 09:30N 48°23' W 004°27'0 0.0
2017-Oct-16 09:00N 48°23' W 004°27'0 0.0
2017-Oct-16 08:30N 48°23' W 004°27'0 0.0
2017-Oct-16 08:00N 48°23' W 004°27'0 0.0
2017-Oct-16 07:30N 48°23' W 004°27'0 0.0
2017-Oct-16 07:00N 48°23' W 004°27'0 0.0
2017-Oct-16 06:30N 48°23' W 004°27'0 0.0
2017-Oct-16 06:00N 48°23' W 004°27'0 0.0
2017-Oct-16 05:30N 48°23' W 004°27'0 0.0
2017-Oct-16 05:00N 48°23' W 004°27'0 0.0
2017-Oct-16 04:30N 48°23' W 004°27'0 0.0
2017-Oct-16 04:00N 48°23' W 004°27'0 0.0
2017-Oct-16 03:30N 48°23' W 004°27'0 0.0
2017-Oct-16 03:00N 48°23' W 004°27'0 0.0
2017-Oct-16 02:30N 48°23' W 004°27'0 0.0
2017-Oct-16 02:00N 48°23' W 004°27'0 0.0
2017-Oct-16 01:30N 48°23' W 004°27'0 0.0
2017-Oct-16 01:00N 48°23' W 004°27'0 0.0
2017-Oct-16 00:30N 48°23' W 004°27'0 0.0
2017-Oct-16 00:00N 48°23' W 004°27'0 0.0
2017-Oct-15 23:30N 48°23' W 004°27'0 0.0
2017-Oct-15 23:00N 48°23' W 004°27'0 0.0
2017-Oct-15 22:30N 48°23' W 004°27'0 0.0
2017-Oct-15 22:00N 48°23' W 004°27'0 0.0
2017-Oct-15 21:30N 48°23' W 004°27'0 0.0
2017-Oct-15 21:00N 48°23' W 004°27'0 0.0
2017-Oct-15 20:30N 48°23' W 004°27'0 0.0
2017-Oct-15 20:00N 48°23' W 004°27'0 0.0
2017-Oct-15 19:30N 48°23' W 004°27'0 0.0
2017-Oct-15 19:00N 48°23' W 004°27'0 0.0
2017-Oct-15 18:30N 48°23' W 004°27'0 0.0
2017-Oct-15 18:00N 48°23' W 004°27'0 0.0
2017-Oct-15 17:30N 48°23' W 004°27'0 0.0
2017-Oct-15 17:00N 48°23' W 004°27'0 0.0
2017-Oct-15 16:30N 48°23' W 004°27'0 0.0
2017-Oct-15 16:00N 48°23' W 004°27'0 0.0
2017-Oct-15 15:30N 48°23' W 004°27'0 0.0
2017-Oct-15 15:00N 48°23' W 004°27'0 0.0
2017-Oct-15 14:00N 48°23' W 004°27'0 0.0
2017-Oct-15 13:30N 48°23' W 004°27'0 0.0
2017-Oct-15 13:00N 48°23' W 004°27'0 0.0
2017-Oct-15 12:30N 48°23' W 004°27'0 0.0
2017-Oct-15 12:00N 48°23' W 004°27'0 0.0
2017-Oct-15 11:30N 48°23' W 004°27'0 0.0
2017-Oct-15 11:00N 48°23' W 004°27'0 0.0
2017-Oct-15 10:30N 48°23' W 004°27'0 0.0
2017-Oct-15 10:00N 48°23' W 004°27'0 0.0
2017-Oct-15 09:30N 48°23' W 004°27'0 0.0
2017-Oct-15 09:00N 48°23' W 004°27'0 0.0
2017-Oct-15 08:30N 48°23' W 004°27'0 0.0
2017-Oct-15 08:00N 48°23' W 004°27'0 0.0
2017-Oct-15 07:30N 48°23' W 004°27'0 0.0
2017-Oct-15 06:30N 48°23' W 004°27'0 0.0
2017-Oct-15 06:00N 48°23' W 004°27'0 0.0
2017-Oct-15 05:30N 48°23' W 004°27'0 0.0
2017-Oct-15 05:00N 48°23' W 004°27'0 0.0
2017-Oct-15 04:30N 48°23' W 004°27'0 0.0
2017-Oct-15 04:00N 48°23' W 004°27'0 0.0
2017-Oct-15 03:30N 48°23' W 004°27'0 0.0
2017-Oct-15 03:00N 48°23' W 004°27'0 0.0
2017-Oct-15 02:30N 48°23' W 004°27'0 0.0
2017-Oct-15 02:00N 48°23' W 004°27'0 0.0
2017-Oct-15 01:30N 48°23' W 004°27'0 0.0
2017-Oct-15 01:00N 48°23' W 004°27'0 0.0
2017-Oct-15 00:30N 48°23' W 004°27'0 0.0
2017-Oct-15 00:00N 48°23' W 004°27'0 0.0
2017-Oct-14 23:30N 48°23' W 004°27'0 0.0
2017-Oct-14 23:00N 48°23' W 004°27'0 0.0
2017-Oct-14 22:30N 48°23' W 004°27'0 0.0
2017-Oct-14 22:00N 48°23' W 004°27'0 0.0
2017-Oct-14 21:30N 48°23' W 004°27'0 0.0
2017-Oct-14 21:00N 48°23' W 004°27'0 0.0
2017-Oct-14 20:30N 48°23' W 004°27'0 0.0
2017-Oct-14 20:00N 48°23' W 004°27'0 0.0
2017-Oct-14 19:30N 48°23' W 004°27'0 0.0
2017-Oct-14 19:00N 48°23' W 004°27'0 0.0
2017-Oct-14 18:30N 48°23' W 004°27'0 0.0
2017-Oct-14 18:00N 48°23' W 004°27'0 0.0
2017-Oct-14 17:30N 48°23' W 004°27'0 0.0
2017-Oct-14 17:00N 48°23' W 004°27'0 0.0
2017-Oct-14 16:30N 48°23' W 004°27'0 0.0
2017-Oct-14 16:00N 48°23' W 004°27'0 0.0
2017-Oct-14 15:30N 48°23' W 004°27'0 0.0
2017-Oct-14 15:00N 48°23' W 004°27'0 0.0
2017-Oct-14 14:30N 48°23' W 004°27'0 0.0
2017-Oct-14 14:00N 48°23' W 004°27'0 0.0
2017-Oct-14 13:30N 48°23' W 004°27'0 0.4
2017-Oct-14 13:00N 48°23' W 004°27'0 0.7
2017-Oct-14 12:30N 48°23' W 004°27'0 0.0
2017-Oct-14 12:00N 48°23' W 004°27'0 0.0
2017-Oct-14 11:30N 48°23' W 004°27'0 0.0
2017-Oct-14 11:00N 48°23' W 004°27'0 0.0
2017-Oct-14 10:30N 48°23' W 004°27'0 0.0
2017-Oct-14 10:00N 48°23' W 004°27'0 0.0
2017-Oct-14 09:30N 48°23' W 004°27'0 0.0
2017-Oct-14 09:00N 48°23' W 004°27'0 0.0
2017-Oct-14 08:30N 48°23' W 004°27'0 0.0
2017-Oct-14 08:00N 48°23' W 004°27'0 0.0
2017-Oct-14 07:30N 48°23' W 004°27'0 0.0
2017-Oct-14 07:00N 48°23' W 004°27'0 0.0
2017-Oct-14 06:30N 48°23' W 004°27'0 0.0
2017-Oct-14 06:00N 48°23' W 004°27'0 0.0
2017-Oct-14 05:30N 48°23' W 004°27'0 0.0
2017-Oct-14 05:00N 48°23' W 004°27'0 0.0
2017-Oct-14 04:30N 48°23' W 004°27'0 0.0
2017-Oct-14 04:00N 48°23' W 004°27'0 0.0
2017-Oct-14 03:30N 48°23' W 004°27'0 0.0
2017-Oct-14 03:00N 48°23' W 004°27'0 0.0
2017-Oct-14 02:30N 48°23' W 004°27'0 0.0
2017-Oct-14 02:00N 48°23' W 004°27'0 0.0
2017-Oct-14 01:30N 48°23' W 004°27'0 0.0
2017-Oct-14 01:00N 48°23' W 004°27'0 0.0
2017-Oct-14 00:30N 48°23' W 004°27'0 0.0
2017-Oct-14 00:00N 48°23' W 004°27'0 0.0
2017-Oct-13 23:30N 48°23' W 004°27'0 0.0
2017-Oct-13 23:00N 48°23' W 004°27'0 0.0
2017-Oct-13 22:30N 48°23' W 004°27'0 0.0
2017-Oct-13 22:00N 48°23' W 004°27'0 0.0
2017-Oct-13 21:30N 48°23' W 004°27'0 0.0
2017-Oct-13 21:00N 48°23' W 004°27'0 0.0
2017-Oct-13 20:30N 48°23' W 004°27'0 0.0
2017-Oct-13 20:00N 48°23' W 004°27'0 0.0
2017-Oct-13 19:30N 48°23' W 004°27'0 0.0
2017-Oct-13 19:00N 48°23' W 004°27'0 0.0
2017-Oct-13 18:30N 48°23' W 004°27'0 0.0
2017-Oct-13 18:00N 48°23' W 004°27'0 0.0
2017-Oct-13 17:30N 48°23' W 004°27'0 0.0
2017-Oct-13 17:00N 48°23' W 004°27'0 0.0
2017-Oct-13 16:30N 48°23' W 004°27'0 0.0
2017-Oct-13 16:00N 48°23' W 004°27'0 0.0
2017-Oct-13 15:30N 48°23' W 004°27'0 0.0
2017-Oct-13 15:00N 48°23' W 004°27'0 0.0
2017-Oct-13 14:30N 48°23' W 004°27'0 0.0
2017-Oct-13 14:00N 48°23' W 004°27'0 0.0
2017-Oct-13 13:30N 48°23' W 004°27'0 0.0
2017-Oct-13 13:00N 48°23' W 004°27'0 0.0
2017-Oct-13 12:30N 48°23' W 004°27'0 0.0
2017-Oct-13 12:00N 48°23' W 004°27'0 0.0
2017-Oct-13 11:30N 48°23' W 004°27'0 0.0
2017-Oct-13 11:00N 48°23' W 004°27'0 0.0
2017-Oct-13 10:30N 48°23' W 004°27'0 0.0
2017-Oct-13 10:00N 48°23' W 004°27'0 0.0
2017-Oct-13 09:30N 48°23' W 004°27'0 0.0
2017-Oct-13 09:00N 48°23' W 004°27'0 0.0
2017-Oct-13 08:30N 48°23' W 004°27'0 0.0
2017-Oct-13 08:00N 48°23' W 004°27'0 0.0
2017-Oct-13 07:30N 48°23' W 004°27'0 0.0
2017-Oct-13 07:00N 48°23' W 004°27'0 0.0
2017-Oct-13 06:30N 48°23' W 004°27'0 0.0
2017-Oct-13 06:00N 48°23' W 004°27'0 0.0
2017-Oct-13 05:30N 48°23' W 004°27'0 0.0
2017-Oct-13 05:00N 48°23' W 004°27'0 0.0
2017-Oct-13 04:30N 48°23' W 004°27'0 0.0
2017-Oct-13 04:00N 48°23' W 004°27'0 0.0
2017-Oct-13 03:30N 48°23' W 004°27'0 0.0
2017-Oct-13 03:00N 48°23' W 004°27'0 0.0
2017-Oct-13 02:30N 48°23' W 004°27'0 0.0
2017-Oct-13 02:00N 48°23' W 004°27'0 0.0
2017-Oct-13 01:30N 48°23' W 004°27'0 0.0
2017-Oct-13 01:00N 48°23' W 004°27'0 0.0
2017-Oct-13 00:30N 48°23' W 004°27'0 0.0
2017-Oct-13 00:00N 48°23' W 004°27'0 0.0
2017-Oct-12 23:30N 48°23' W 004°27'0 0.0
2017-Oct-12 23:00N 48°23' W 004°27'0 0.0
2017-Oct-12 22:30N 48°23' W 004°27'0 0.0
2017-Oct-12 22:00N 48°23' W 004°27'0 0.0
2017-Oct-12 21:30N 48°23' W 004°27'0 0.0
2017-Oct-12 21:00N 48°23' W 004°27'0 0.0
2017-Oct-12 20:30N 48°23' W 004°27'0 0.0
2017-Oct-12 20:00N 48°23' W 004°27'0 0.0
2017-Oct-12 19:30N 48°23' W 004°27'0 0.0
2017-Oct-12 18:54N 48°23' W 004°27'0 0.0
2017-Oct-12 18:30N 48°23' W 004°27'0 0.0
2017-Oct-12 18:00N 48°23' W 004°27'0 0.0
2017-Oct-12 17:30N 48°23' W 004°27'0 0.0
2017-Oct-12 17:00N 48°23' W 004°27'0 0.0
2017-Oct-12 16:30N 48°23' W 004°27'0 0.0
2017-Oct-12 16:00N 48°23' W 004°27'0 0.0
2017-Oct-12 15:30N 48°23' W 004°27'0 0.0
2017-Oct-12 15:00N 48°23' W 004°27'0 0.0
2017-Oct-12 14:24N 48°23' W 004°27'0 0.0
2017-Oct-12 14:00N 48°23' W 004°27'0 0.0
2017-Oct-12 13:30N 48°23' W 004°27'0 0.0
2017-Oct-12 13:00N 48°23' W 004°27'0 0.0
2017-Oct-12 12:30N 48°23' W 004°27'0 0.0
2017-Oct-12 12:00N 48°23' W 004°27'0 0.0
2017-Oct-12 11:30N 48°23' W 004°27'0 0.0
2017-Oct-12 11:00N 48°23' W 004°27'0 0.0
2017-Oct-12 10:30N 48°23' W 004°27'0 0.0
2017-Oct-12 10:00N 48°23' W 004°27'0 0.0
2017-Oct-12 09:30N 48°23' W 004°27'0 0.0
2017-Oct-12 09:00N 48°23' W 004°27'0 0.0
2017-Oct-12 08:30N 48°23' W 004°27'0 0.0
2017-Oct-12 08:00N 48°23' W 004°27'0 0.0
2017-Oct-12 07:30N 48°23' W 004°27'  
Track history (hours):
 
Tides and Currents Weather Stations Pressure Air Temp Water Temp Dewpoint Dewpoint Depression Visibility Wind Speed Wind Dir Waves Ship Positions

Global 1200

Last reported at 2017-Oct-22 07:09 UTC. Time now 2017-Nov-19 15:51 UTC.
Position N 36°03' W 005°21'.
Warning: this ship's position is 28 days out of date.

Length 162 m; draft 6.8 m.

Type: Ship. MMSI: 311000689.

Date/timePositionNaut miles runAvg speedWind from/ knotsBaromVisibWave heightAir tempDewpointWater temp
2017-Oct-22 07:09N 36°03' W 005°21'0 0.1
2017-Oct-22 06:43N 36°03' W 005°21'0 1.1
2017-Oct-22 06:29N 36°03' W 005°20'3 0.2
2017-Oct-21 16:43N 36°04' W 005°17'312.3
2017-Oct-21 16:30N 36°02' W 005°19'612.1
2017-Oct-21 16:00N 35°59' W 005°25'153 9.6
2017-Oct-21 00:02N 36°24' W 008°32'8 9.6
2017-Oct-20 23:10N 36°27' W 008°42'4 9.3
2017-Oct-20 22:44N 36°28' W 008°47'3 8.9
2017-Oct-20 22:27N 36°28' W 008°50'4 8.9
2017-Oct-20 22:00N 36°29' W 008°55'5 9.5
2017-Oct-20 21:30N 36°31' W 009°01'11 9.6
2017-Oct-20 20:20N 36°34' W 009°14'102 9.8
2017-Oct-20 09:56N 38°10' W 009°57'710.7
2017-Oct-20 09:17N 38°17' W 009°59'310.4
2017-Oct-20 09:00N 38°19' W 009°60'510.2
2017-Oct-20 08:30N 38°24' W 010°01'510.1
2017-Oct-20 08:00N 38°29' W 010°03'510.0
2017-Oct-20 07:30N 38°34' W 010°04'510.1
2017-Oct-20 07:00N 38°39' W 010°06'5 9.8
2017-Oct-20 06:30N 38°44' W 010°07'5 9.5
2017-Oct-20 06:00N 38°48' W 010°06'510.2
2017-Oct-20 05:30N 38°54' W 010°07'5 9.9
2017-Oct-20 05:00N 38°59' W 010°06'5 9.8
2017-Oct-20 04:30N 39°03' W 010°06'510.3
2017-Oct-20 04:00N 39°09' W 010°06'510.5
2017-Oct-20 03:30N 39°14' W 010°07'510.1
2017-Oct-20 03:00N 39°19' W 010°07'510.0
2017-Oct-20 02:30N 39°24' W 010°06'480 9.7
2017-Oct-18 00:56N 46°59' W 006°38'1010.2
2017-Oct-17 23:57N 47°07' W 006°30'1710.4
2017-Oct-17 22:20N 47°21' W 006°16'3510.9
2017-Oct-17 19:09N 47°51' W 005°49'612.2
2017-Oct-17 18:37N 47°56' W 005°44'612.1
2017-Oct-17 18:08N 48°01' W 005°39'510.5
2017-Oct-17 17:41N 48°03' W 005°32'210.7
2017-Oct-17 17:28N 48°04' W 005°29'510.6
2017-Oct-17 17:00N 48°06' W 005°23'612.3
2017-Oct-17 16:29N 48°09' W 005°14'5 9.4
2017-Oct-17 15:55N 48°11' W 005°07'3 8.4
2017-Oct-17 15:30N 48°12' W 005°02'510.2
2017-Oct-17 15:00N 48°14' W 004°55'510.4
2017-Oct-17 14:30N 48°16' W 004°48'510.8
2017-Oct-17 14:00N 48°18' W 004°40'5 9.1
2017-Oct-17 13:30N 48°21' W 004°34'4 8.4
2017-Oct-17 13:00N 48°22' W 004°28'1 2.0
2017-Oct-17 12:30N 48°23' W 004°27'0 0.0
2017-Oct-17 12:00N 48°23' W 004°27'0 0.0
2017-Oct-17 11:31N 48°23' W 004°27'0 0.0
2017-Oct-17 11:00N 48°23' W 004°27'0 0.0
2017-Oct-17 10:30N 48°23' W 004°27'0 0.0
2017-Oct-17 10:00N 48°23' W 004°27'0 0.0
2017-Oct-17 09:30N 48°23' W 004°27'0 0.0
2017-Oct-17 09:00N 48°23' W 004°27'0 0.0
2017-Oct-17 08:30N 48°23' W 004°27'0 0.0
2017-Oct-17 08:00N 48°23' W 004°27'0 0.0
2017-Oct-17 07:30N 48°23' W 004°27'0 0.0
2017-Oct-17 07:00N 48°23' W 004°27'0 0.0
2017-Oct-17 06:30N 48°23' W 004°27'0 0.0
2017-Oct-17 06:00N 48°23' W 004°27'0 0.0
2017-Oct-17 05:30N 48°23' W 004°27'0 0.0
2017-Oct-17 05:00N 48°23' W 004°27'0 0.0
2017-Oct-17 04:30N 48°23' W 004°27'0 0.0
2017-Oct-17 04:00N 48°23' W 004°27'0 0.0
2017-Oct-17 03:30N 48°23' W 004°27'0 0.0
2017-Oct-17 03:00N 48°23' W 004°27'0 0.0
2017-Oct-17 02:30N 48°23' W 004°27'0 0.0
2017-Oct-17 02:00N 48°23' W 004°27'0 0.0
2017-Oct-17 01:30N 48°23' W 004°27'0 0.0
2017-Oct-17 01:00N 48°23' W 004°27'0 0.0
2017-Oct-17 00:30N 48°23' W 004°27'0 0.0
2017-Oct-17 00:00N 48°23' W 004°27'0 0.0
2017-Oct-16 23:30N 48°23' W 004°27'0 0.0
2017-Oct-16 23:00N 48°23' W 004°27'0 0.0
2017-Oct-16 22:30N 48°23' W 004°27'0 0.0
2017-Oct-16 22:00N 48°23' W 004°27'0 0.0
2017-Oct-16 21:30N 48°23' W 004°27'0 0.0
2017-Oct-16 21:00N 48°23' W 004°27'0 0.0
2017-Oct-16 20:30N 48°23' W 004°27'0 0.0
2017-Oct-16 20:00N 48°23' W 004°27'0 0.0
2017-Oct-16 19:30N 48°23' W 004°27'0 0.0
2017-Oct-16 19:00N 48°23' W 004°27'0 0.0
2017-Oct-16 18:30N 48°23' W 004°27'0 0.0
2017-Oct-16 18:00N 48°23' W 004°27'0 0.0
2017-Oct-16 17:30N 48°23' W 004°27'0 0.0
2017-Oct-16 17:00N 48°23' W 004°27'0 0.0
2017-Oct-16 16:30N 48°23' W 004°27'0 0.0
2017-Oct-16 16:00N 48°23' W 004°27'0 0.0
2017-Oct-16 15:30N 48°23' W 004°27'0 0.0
2017-Oct-16 15:00N 48°23' W 004°27'0 0.0
2017-Oct-16 14:00N 48°23' W 004°27'0 0.0
2017-Oct-16 13:30N 48°23' W 004°27'0 0.0
2017-Oct-16 13:00N 48°23' W 004°27'0 0.0
2017-Oct-16 12:30N 48°23' W 004°27'0 0.0
2017-Oct-16 12:00N 48°23' W 004°27'0 0.0
2017-Oct-16 11:30N 48°23' W 004°27'0 0.0
2017-Oct-16 11:00N 48°23' W 004°27'0 0.0
2017-Oct-16 10:30N 48°23' W 004°27'0 0.0
2017-Oct-16 10:00N 48°23' W 004°27'0 0.0
2017-Oct-16 09:30N 48°23' W 004°27'0 0.0
2017-Oct-16 09:00N 48°23' W 004°27'0 0.0
2017-Oct-16 08:30N 48°23' W 004°27'0 0.0
2017-Oct-16 08:00N 48°23' W 004°27'0 0.0
2017-Oct-16 07:30N 48°23' W 004°27'0 0.0
2017-Oct-16 07:00N 48°23' W 004°27'0 0.0
2017-Oct-16 06:30N 48°23' W 004°27'0 0.0
2017-Oct-16 06:00N 48°23' W 004°27'0 0.0
2017-Oct-16 05:30N 48°23' W 004°27'0 0.0
2017-Oct-16 05:00N 48°23' W 004°27'0 0.0
2017-Oct-16 04:30N 48°23' W 004°27'0 0.0
2017-Oct-16 04:00N 48°23' W 004°27'0 0.0
2017-Oct-16 03:30N 48°23' W 004°27'0 0.0
2017-Oct-16 03:00N 48°23' W 004°27'0 0.0
2017-Oct-16 02:30N 48°23' W 004°27'0 0.0
2017-Oct-16 02:00N 48°23' W 004°27'0 0.0
2017-Oct-16 01:30N 48°23' W 004°27'0 0.0
2017-Oct-16 01:00N 48°23' W 004°27'0 0.0
2017-Oct-16 00:30N 48°23' W 004°27'0 0.0
2017-Oct-16 00:00N 48°23' W 004°27'0 0.0
2017-Oct-15 23:30N 48°23' W 004°27'0 0.0
2017-Oct-15 23:00N 48°23' W 004°27'0 0.0
2017-Oct-15 22:30N 48°23' W 004°27'0 0.0
2017-Oct-15 22:00N 48°23' W 004°27'0 0.0
2017-Oct-15 21:30N 48°23' W 004°27'0 0.0
2017-Oct-15 21:00N 48°23' W 004°27'0 0.0
2017-Oct-15 20:30N 48°23' W 004°27'0 0.0
2017-Oct-15 20:00N 48°23' W 004°27'0 0.0
2017-Oct-15 19:30N 48°23' W 004°27'0 0.0
2017-Oct-15 19:00N 48°23' W 004°27'0 0.0
2017-Oct-15 18:30N 48°23' W 004°27'0 0.0
2017-Oct-15 18:00N 48°23' W 004°27'0 0.0
2017-Oct-15 17:30N 48°23' W 004°27'0 0.0
2017-Oct-15 17:00N 48°23' W 004°27'0 0.0
2017-Oct-15 16:30N 48°23' W 004°27'0 0.0
2017-Oct-15 16:00N 48°23' W 004°27'0 0.0
2017-Oct-15 15:30N 48°23' W 004°27'0 0.0
2017-Oct-15 15:00N 48°23' W 004°27'0 0.0
2017-Oct-15 14:00N 48°23' W 004°27'0 0.0
2017-Oct-15 13:30N 48°23' W 004°27'0 0.0
2017-Oct-15 13:00N 48°23' W 004°27'0 0.0
2017-Oct-15 12:30N 48°23' W 004°27'0 0.0
2017-Oct-15 12:00N 48°23' W 004°27'0 0.0
2017-Oct-15 11:30N 48°23' W 004°27'0 0.0
2017-Oct-15 11:00N 48°23' W 004°27'0 0.0
2017-Oct-15 10:30N 48°23' W 004°27'0 0.0
2017-Oct-15 10:00N 48°23' W 004°27'0 0.0
2017-Oct-15 09:30N 48°23' W 004°27'0 0.0
2017-Oct-15 09:00N 48°23' W 004°27'0 0.0
2017-Oct-15 08:30N 48°23' W 004°27'0 0.0
2017-Oct-15 08:00N 48°23' W 004°27'0 0.0
2017-Oct-15 07:30N 48°23' W 004°27'0 0.0
2017-Oct-15 06:30N 48°23' W 004°27'0 0.0
2017-Oct-15 06:00N 48°23' W 004°27'0 0.0
2017-Oct-15 05:30N 48°23' W 004°27'0 0.0
2017-Oct-15 05:00N 48°23' W 004°27'0 0.0
2017-Oct-15 04:30N 48°23' W 004°27'0 0.0
2017-Oct-15 04:00N 48°23' W 004°27'0 0.0
2017-Oct-15 03:30N 48°23' W 004°27'0 0.0
2017-Oct-15 03:00N 48°23' W 004°27'0 0.0
2017-Oct-15 02:30N 48°23' W 004°27'0 0.0
2017-Oct-15 02:00N 48°23' W 004°27'0 0.0
2017-Oct-15 01:30N 48°23' W 004°27'0 0.0
2017-Oct-15 01:00N 48°23' W 004°27'0 0.0
2017-Oct-15 00:30N 48°23' W 004°27'0 0.0
2017-Oct-15 00:00N 48°23' W 004°27'0 0.0
2017-Oct-14 23:30N 48°23' W 004°27'0 0.0
2017-Oct-14 23:00N 48°23' W 004°27'0 0.0
2017-Oct-14 22:30N 48°23' W 004°27'0 0.0
2017-Oct-14 22:00N 48°23' W 004°27'0 0.0
2017-Oct-14 21:30N 48°23' W 004°27'0 0.0
2017-Oct-14 21:00N 48°23' W 004°27'0 0.0
2017-Oct-14 20:30N 48°23' W 004°27'0 0.0
2017-Oct-14 20:00N 48°23' W 004°27'0 0.0
2017-Oct-14 19:30N 48°23' W 004°27'0 0.0
2017-Oct-14 19:00N 48°23' W 004°27'0 0.0
2017-Oct-14 18:30N 48°23' W 004°27'0 0.0
2017-Oct-14 18:00N 48°23' W 004°27'0 0.0
2017-Oct-14 17:30N 48°23' W 004°27'0 0.0
2017-Oct-14 17:00N 48°23' W 004°27'0 0.0
2017-Oct-14 16:30N 48°23' W 004°27'0 0.0
2017-Oct-14 16:00N 48°23' W 004°27'0 0.0
2017-Oct-14 15:30N 48°23' W 004°27'0 0.0
2017-Oct-14 15:00N 48°23' W 004°27'0 0.0
2017-Oct-14 14:30N 48°23' W 004°27'0 0.0
2017-Oct-14 14:00N 48°23' W 004°27'0 0.0
2017-Oct-14 13:30N 48°23' W 004°27'0 0.4
2017-Oct-14 13:00N 48°23' W 004°27'0 0.7
2017-Oct-14 12:30N 48°23' W 004°27'0 0.0
2017-Oct-14 12:00N 48°23' W 004°27'0 0.0
2017-Oct-14 11:30N 48°23' W 004°27'0 0.0
2017-Oct-14 11:00N 48°23' W 004°27'0 0.0
2017-Oct-14 10:30N 48°23' W 004°27'0 0.0
2017-Oct-14 10:00N 48°23' W 004°27'0 0.0
2017-Oct-14 09:30N 48°23' W 004°27'0 0.0
2017-Oct-14 09:00N 48°23' W 004°27'0 0.0
2017-Oct-14 08:30N 48°23' W 004°27'0 0.0
2017-Oct-14 08:00N 48°23' W 004°27'0 0.0
2017-Oct-14 07:30N 48°23' W 004°27'0 0.0
2017-Oct-14 07:00N 48°23' W 004°27'0 0.0
2017-Oct-14 06:30N 48°23' W 004°27'0 0.0
2017-Oct-14 06:00N 48°23' W 004°27'0 0.0
2017-Oct-14 05:30N 48°23' W 004°27'0 0.0
2017-Oct-14 05:00N 48°23' W 004°27'0 0.0
2017-Oct-14 04:30N 48°23' W 004°27'0 0.0
2017-Oct-14 04:00N 48°23' W 004°27'0 0.0
2017-Oct-14 03:30N 48°23' W 004°27'0 0.0
2017-Oct-14 03:00N 48°23' W 004°27'0 0.0
2017-Oct-14 02:30N 48°23' W 004°27'0 0.0
2017-Oct-14 02:00N 48°23' W 004°27'0 0.0
2017-Oct-14 01:30N 48°23' W 004°27'0 0.0
2017-Oct-14 01:00N 48°23' W 004°27'0 0.0
2017-Oct-14 00:30N 48°23' W 004°27'0 0.0
2017-Oct-14 00:00N 48°23' W 004°27'0 0.0
2017-Oct-13 23:30N 48°23' W 004°27'0 0.0
2017-Oct-13 23:00N 48°23' W 004°27'0 0.0
2017-Oct-13 22:30N 48°23' W 004°27'0 0.0
2017-Oct-13 22:00N 48°23' W 004°27'0 0.0
2017-Oct-13 21:30N 48°23' W 004°27'0 0.0
2017-Oct-13 21:00N 48°23' W 004°27'0 0.0
2017-Oct-13 20:30N 48°23' W 004°27'0 0.0
2017-Oct-13 20:00N 48°23' W 004°27'0 0.0
2017-Oct-13 19:30N 48°23' W 004°27'0 0.0
2017-Oct-13 19:00N 48°23' W 004°27'0 0.0
2017-Oct-13 18:30N 48°23' W 004°27'0 0.0
2017-Oct-13 18:00N 48°23' W 004°27'0 0.0
2017-Oct-13 17:30N 48°23' W 004°27'0 0.0
2017-Oct-13 17:00N 48°23' W 004°27'0 0.0
2017-Oct-13 16:30N 48°23' W 004°27'0 0.0
2017-Oct-13 16:00N 48°23' W 004°27'0 0.0
2017-Oct-13 15:30N 48°23' W 004°27'0 0.0
2017-Oct-13 15:00N 48°23' W 004°27'0 0.0
2017-Oct-13 14:30N 48°23' W 004°27'0 0.0
2017-Oct-13 14:00N 48°23' W 004°27'0 0.0
2017-Oct-13 13:30N 48°23' W 004°27'0 0.0
2017-Oct-13 13:00N 48°23' W 004°27'0 0.0
2017-Oct-13 12:30N 48°23' W 004°27'0 0.0
2017-Oct-13 12:00N 48°23' W 004°27'0 0.0
2017-Oct-13 11:30N 48°23' W 004°27'0 0.0
2017-Oct-13 11:00N 48°23' W 004°27'0 0.0
2017-Oct-13 10:30N 48°23' W 004°27'0 0.0
2017-Oct-13 10:00N 48°23' W 004°27'0 0.0
2017-Oct-13 09:30N 48°23' W 004°27'0 0.0
2017-Oct-13 09:00N 48°23' W 004°27'0 0.0
2017-Oct-13 08:30N 48°23' W 004°27'0 0.0
2017-Oct-13 08:00N 48°23' W 004°27'0 0.0
2017-Oct-13 07:30N 48°23' W 004°27'0 0.0
2017-Oct-13 07:00N 48°23' W 004°27'0 0.0
2017-Oct-13 06:30N 48°23' W 004°27'0 0.0
2017-Oct-13 06:00N 48°23' W 004°27'0 0.0
2017-Oct-13 05:30N 48°23' W 004°27'0 0.0
2017-Oct-13 05:00N 48°23' W 004°27'0 0.0
2017-Oct-13 04:30N 48°23' W 004°27'0 0.0
2017-Oct-13 04:00N 48°23' W 004°27'0 0.0
2017-Oct-13 03:30N 48°23' W 004°27'0 0.0
2017-Oct-13 03:00N 48°23' W 004°27'0 0.0
2017-Oct-13 02:30N 48°23' W 004°27'0 0.0
2017-Oct-13 02:00N 48°23' W 004°27'0 0.0
2017-Oct-13 01:30N 48°23' W 004°27'0 0.0
2017-Oct-13 01:00N 48°23' W 004°27'0 0.0
2017-Oct-13 00:30N 48°23' W 004°27'0 0.0
2017-Oct-13 00:00N 48°23' W 004°27'0 0.0
2017-Oct-12 23:30N 48°23' W 004°27'0 0.0
2017-Oct-12 23:00N 48°23' W 004°27'0 0.0
2017-Oct-12 22:30N 48°23' W 004°27'0 0.0
2017-Oct-12 22:00N 48°23' W 004°27'0 0.0
2017-Oct-12 21:30N 48°23' W 004°27'0 0.0
2017-Oct-12 21:00N 48°23' W 004°27'0 0.0
2017-Oct-12 20:30N 48°23' W 004°27'0 0.0
2017-Oct-12 20:00N 48°23' W 004°27'0 0.0
2017-Oct-12 19:30N 48°23' W 004°27'0 0.0
2017-Oct-12 18:54N 48°23' W 004°27'0 0.0
2017-Oct-12 18:30N 48°23' W 004°27'0 0.0
2017-Oct-12 18:00N 48°23' W 004°27'0 0.0
2017-Oct-12 17:30N 48°23' W 004°27'0 0.0
2017-Oct-12 17:00N 48°23' W 004°27'0 0.0
2017-Oct-12 16:30N 48°23' W 004°27'0 0.0
2017-Oct-12 16:00N 48°23' W 004°27'0 0.0
2017-Oct-12 15:30N 48°23' W 004°27'0 0.0
2017-Oct-12 15:00N 48°23' W 004°27'0 0.0
2017-Oct-12 14:24N 48°23' W 004°27'0 0.0
2017-Oct-12 14:00N 48°23' W 004°27'0 0.0
2017-Oct-12 13:30N 48°23' W 004°27'0 0.0
2017-Oct-12 13:00N 48°23' W 004°27'0 0.0
2017-Oct-12 12:30N 48°23' W 004°27'0 0.0
2017-Oct-12 12:00N 48°23' W 004°27'0 0.0
2017-Oct-12 11:30N 48°23' W 004°27'0 0.0
2017-Oct-12 11:00N 48°23' W 004°27'0 0.0
2017-Oct-12 10:30N 48°23' W 004°27'0 0.0
2017-Oct-12 10:00N 48°23' W 004°27'0 0.0
2017-Oct-12 09:30N 48°23' W 004°27'0 0.0
2017-Oct-12 09:00N 48°23' W 004°27'0 0.0
2017-Oct-12 08:30N 48°23' W 004°27'0 0.0
2017-Oct-12 08:00N 48°23' W 004°27'0 0.0
2017-Oct-12 07:30N 48°23' W 004°27'  

Dump ship's entire track history